Time;durP1;ratioP1;P1;durP2;ratioP2;P2;SDS_P1;SDS_P2;PMS_P1;PMS_P2;Temp;Humidity;BMP_temperature;BMP_pressure;BME280_temperature;BME280_humidity;BME280_pressure;Samples;Min_cycle;Max_cycle;Signal;HPM_P1;HPM_P2
2021/10/11 00:00:47;;;;;;;0.80;0.70;;;;;;;8.11;100.00;-20902.97;4975383;28;20475;-72
2021/10/11 00:03:17;;;;;;;1.37;1.30;;;;;;;8.13;100.00;-20903.53;4974621;28;20458;-72
2021/10/11 00:05:45;;;;;;;0.70;0.60;;;;;;;8.21;100.00;-20905.75;4974371;28;20517;-72
2021/10/11 00:08:12;;;;;;;0.70;0.60;;;;;;;8.26;100.00;-20907.00;4969325;28;20476;-72
2021/10/11 00:10:41;;;;;;;0.70;0.70;;;;;;;8.34;100.00;-20909.22;4969952;28;20563;-73
2021/10/11 00:13:08;;;;;;;0.80;0.80;;;;;;;8.56;100.00;-20915.19;4974110;28;20451;-73
2021/10/11 00:15:35;;;;;;;0.70;0.60;;;;;;;8.73;100.00;-20919.63;4975203;28;20468;-73
2021/10/11 00:18:06;;;;;;;0.80;0.70;;;;;;;8.73;100.00;-20919.63;4973614;28;20427;-73
2021/10/11 00:20:33;;;;;;;0.70;0.60;;;;;;;8.52;100.00;-20914.09;4974588;28;20500;-73
2021/10/11 00:23:00;;;;;;;0.70;0.63;;;;;;;8.42;100.00;-20911.44;4974408;28;20474;-73
2021/10/11 00:25:27;;;;;;;0.70;0.60;;;;;;;8.44;100.00;-20912.00;4975276;28;20885;-73
2021/10/11 00:27:57;;;;;;;0.70;0.60;;;;;;;8.43;100.00;-20911.72;4990421;28;20466;-75
2021/10/11 00:30:24;;;;;;;0.70;0.60;;;;;;;8.36;100.00;-20909.78;4966344;28;20470;-73
2021/10/11 00:32:54;;;;;;;0.70;0.60;;;;;;;8.10;100.00;-20902.69;4973447;28;20542;-73
2021/10/11 00:35:28;;;;;;;0.70;0.60;;;;;;;8.18;100.00;-20904.91;4972879;28;20435;-74
2021/10/11 00:38:00;;;;;;;0.70;0.60;;;;;;;8.09;100.00;-20902.41;4974294;28;20487;-73
2021/10/11 00:40:32;;;;;;;0.70;0.60;;;;;;;8.06;100.00;-20901.59;4974779;28;20415;-74
2021/10/11 00:43:05;;;;;;;0.83;0.83;;;;;;;8.18;100.00;-20904.91;4975104;28;20786;-73
2021/10/11 00:45:38;;;;;;;0.70;0.70;;;;;;;8.17;100.00;-20904.66;4989514;28;20471;-73
2021/10/11 00:48:12;;;;;;;0.70;0.60;;;;;;;8.23;100.00;-20906.31;4974721;28;20420;-74
2021/10/11 00:50:42;;;;;;;0.70;0.60;;;;;;;8.21;100.00;-20905.63;4988710;28;20460;-74
2021/10/11 00:53:14;;;;;;;0.70;0.60;;;;;;;8.15;100.00;-20904.09;4973506;28;20562;-73
2021/10/11 00:55:47;;;;;;;0.70;0.60;;;;;;;8.03;100.00;-20900.75;4988702;28;20440;-73
2021/10/11 00:58:17;;;;;;;0.70;0.60;;;;;;;8.00;100.00;-20899.94;4973329;28;20424;-73
2021/10/11 01:00:49;;;;;;;0.70;0.60;;;;;;;7.96;100.00;-20898.97;4964419;28;20429;-74
2021/10/11 01:03:19;;;;;;;0.70;0.60;;;;;;;7.80;100.00;-20894.50;4976800;28;20948;-72
2021/10/11 01:05:50;;;;;;;0.70;0.60;;;;;;;7.47;100.00;-20885.63;4973714;28;20460;-72
2021/10/11 01:08:21;;;;;;;0.90;0.90;;;;;;;7.55;100.00;-20887.72;4972637;28;20473;-72
2021/10/11 01:10:57;;;;;;;0.70;0.60;;;;;;;7.50;100.00;-20886.31;4972727;28;20494;-73
2021/10/11 01:13:32;;;;;;;0.70;0.60;;;;;;;7.49;100.00;-20886.03;4973295;28;20411;-72
2021/10/11 01:16:07;;;;;;;0.70;0.60;;;;;;;7.58;100.00;-20888.41;4972975;28;20422;-72
2021/10/11 01:18:42;;;;;;;1.67;1.00;;;;;;;7.54;100.00;-20887.28;4974179;28;20791;-73
2021/10/11 01:21:19;;;;;;;0.70;0.70;;;;;;;7.58;100.00;-20888.41;4974572;28;20416;-73
2021/10/11 01:24:01;;;;;;;0.70;0.60;;;;;;;7.81;100.00;-20894.66;4972047;28;20467;-73
2021/10/11 01:26:37;;;;;;;0.70;0.60;;;;;;;8.07;100.00;-20901.72;4957295;28;20437;-73
2021/10/11 01:29:17;;;;;;;0.70;0.60;;;;;;;8.29;100.00;-20907.69;4969270;28;20833;-73
2021/10/11 01:31:49;;;;;;;0.70;0.60;;;;;;;8.36;100.00;-20909.78;4988657;28;20459;-73
2021/10/11 01:34:21;;;;;;;0.70;0.53;;;;;;;8.55;100.00;-20914.78;4955967;28;20538;-74
2021/10/11 01:36:50;;;;;;;0.70;0.60;;;;;;;8.73;100.00;-20919.63;4973262;28;20428;-73
2021/10/11 01:39:18;;;;;;;0.70;0.63;;;;;;;8.74;100.00;-20919.91;4972813;28;20810;-73
2021/10/11 01:41:45;;;;;;;0.80;0.70;;;;;;;8.78;100.00;-20921.16;4974319;28;20772;-74
2021/10/11 01:44:11;;;;;;;0.70;0.60;;;;;;;8.81;100.00;-20921.84;4974271;28;20424;-73
2021/10/11 01:46:38;;;;;;;0.70;0.60;;;;;;;8.92;100.00;-20924.91;4971311;28;20443;-74
2021/10/11 01:49:05;;;;;;;3.63;1.63;;;;;;;9.00;100.00;-20927.13;4974221;28;20440;-73
2021/10/11 01:51:34;;;;;;;1.13;1.03;;;;;;;9.10;100.00;-20929.75;4973846;28;20433;-74
2021/10/11 01:54:03;;;;;;;0.70;0.60;;;;;;;9.07;100.00;-20929.06;4974147;28;20964;-73
2021/10/11 01:56:30;;;;;;;0.70;0.60;;;;;;;9.15;100.00;-20931.28;4972499;28;20550;-73
2021/10/11 01:58:57;;;;;;;0.80;0.80;;;;;;;9.15;100.00;-20931.13;4972907;28;20440;-74
2021/10/11 02:01:24;;;;;;;0.70;0.60;;;;;;;9.17;100.00;-20931.81;4972089;28;20452;-73
2021/10/11 02:03:51;;;;;;;0.70;0.60;;;;;;;9.20;100.00;-20932.50;4974308;28;20412;-73
2021/10/11 02:06:22;;;;;;;1.93;0.90;;;;;;;9.31;100.00;-20935.41;4972191;28;20470;-74
2021/10/11 02:08:50;;;;;;;0.70;0.60;;;;;;;9.35;100.00;-20936.69;4972298;28;20468;-73
2021/10/11 02:11:19;;;;;;;0.70;0.60;;;;;;;9.46;100.00;-20939.44;4957973;28;20487;-73
2021/10/11 02:13:46;;;;;;;0.70;0.63;;;;;;;9.46;100.00;-20939.56;4957094;29;20972;-73
2021/10/11 02:16:14;;;;;;;0.70;0.60;;;;;;;9.50;100.00;-20940.53;5007600;28;20878;-73
2021/10/11 02:18:41;;;;;;;0.70;0.60;;;;;;;9.63;100.00;-20944.28;4977405;28;20436;-73
2021/10/11 02:21:08;;;;;;;1.63;1.53;;;;;;;9.63;100.00;-20944.28;4992280;28;20452;-73
2021/10/11 02:23:35;;;;;;;0.70;0.60;;;;;;;9.71;100.00;-20946.22;4975745;28;21012;-73
2021/10/11 02:26:02;;;;;;;0.70;0.60;;;;;;;9.59;100.00;-20943.19;4956687;28;20448;-74
2021/10/11 02:28:30;;;;;;;0.70;0.60;;;;;;;9.61;100.00;-20943.75;4974736;28;20462;-72
2021/10/11 02:30:57;;;;;;;0.70;0.60;;;;;;;9.77;100.00;-20948.03;4974903;28;20512;-74
2021/10/11 02:33:24;;;;;;;0.70;0.63;;;;;;;9.85;100.00;-20950.25;4977059;28;20541;-73
2021/10/11 02:35:51;;;;;;;0.70;0.60;;;;;;;9.93;100.00;-20952.31;4977581;28;20927;-72
2021/10/11 02:38:18;;;;;;;0.70;0.60;;;;;;;9.92;100.00;-20952.03;4976530;28;20999;-72
2021/10/11 02:40:46;;;;;;;0.70;0.50;;;;;;;10.02;100.00;-20954.81;4974796;28;20513;-74
2021/10/11 02:43:13;;;;;;;0.70;0.60;;;;;;;9.98;100.00;-20953.56;4976711;28;20533;-73
2021/10/11 02:45:42;;;;;;;1.77;1.17;;;;;;;10.04;100.00;-20955.38;4975425;28;20491;-72
2021/10/11 02:48:08;;;;;;;0.70;0.60;;;;;;;10.10;100.00;-20957.03;4974656;28;20501;-73
2021/10/11 02:50:36;;;;;;;2.90;1.17;;;;;;;10.14;100.00;-20958.13;4976829;28;20464;-73
2021/10/11 02:53:03;;;;;;;0.70;0.60;;;;;;;10.20;100.00;-20959.50;4976252;28;20554;-73
2021/10/11 02:55:30;;;;;;;0.70;0.60;;;;;;;10.19;100.00;-20959.38;4974636;28;20458;-72
2021/10/11 02:57:57;;;;;;;0.70;0.60;;;;;;;10.21;100.00;-20959.94;4975569;28;20445;-73
2021/10/11 03:00:24;;;;;;;1.07;0.97;;;;;;;10.15;100.00;-20958.41;4991570;28;20422;-74
2021/10/11 03:02:53;;;;;;;0.70;0.60;;;;;;;10.23;100.00;-20960.34;4990545;28;20618;-74
2021/10/11 03:05:20;;;;;;;0.70;0.60;;;;;;;10.26;100.00;-20961.19;4976372;28;20548;-74
2021/10/11 03:07:49;;;;;;;0.70;0.70;;;;;;;10.29;100.00;-20962.00;4975112;28;20468;-74
2021/10/11 03:10:16;;;;;;;0.70;0.70;;;;;;;10.26;100.00;-20929.41;4975725;28;20522;-74
2021/10/11 03:12:43;;;;;;;1.13;1.03;;;;;;;10.31;100.00;-20855.69;4975408;28;20420;-74
2021/10/11 03:15:11;;;;;;;0.70;0.60;;;;;;;10.30;100.00;-20810.22;4975976;28;20935;-74
2021/10/11 03:17:38;;;;;;;0.90;0.80;;;;;;;10.23;100.00;-20770.88;4974496;28;20454;-74
2021/10/11 03:20:08;;;;;;;1.30;1.20;;;;;;;10.33;100.00;-20620.91;4975730;28;20511;-73
2021/10/11 03:22:36;;;;;;;1.20;1.10;;;;;;;10.32;100.00;-20550.53;4976453;28;20452;-74
2021/10/11 03:25:04;;;;;;;0.70;0.50;;;;;;;10.32;100.00;-20490.31;4966643;28;20473;-74
2021/10/11 03:27:31;;;;;;;0.70;0.60;;;;;;;10.32;100.00;-20395.16;4974608;28;20526;-74
2021/10/11 03:29:58;;;;;;;0.70;0.60;;;;;;;10.34;100.00;-20348.13;4975951;28;20539;-73
2021/10/11 03:32:26;;;;;;;0.70;0.60;;;;;;;10.46;100.00;-20218.59;4968183;28;20454;-73
2021/10/11 03:34:52;;;;;;;0.70;0.50;;;;;;;10.32;100.00;-20272.63;4972304;28;20447;-73
2021/10/11 03:37:21;;;;;;;0.70;0.50;;;;;;;10.35;100.00;-20210.69;4991044;28;20531;-73
2021/10/11 03:39:48;;;;;;;0.70;0.60;;;;;;;10.41;100.00;-20122.13;4975922;28;20474;-73
2021/10/11 03:42:15;;;;;;;0.97;0.90;;;;;;;10.33;100.00;-20049.91;4974958;28;20779;-73
2021/10/11 03:44:42;;;;;;;0.70;0.60;;;;;;;10.38;100.00;-20131.47;4975628;28;20453;-74
2021/10/11 03:47:09;;;;;;;3.23;2.40;;;;;;;10.39;100.00;-20154.16;4975100;28;20473;-74
2021/10/11 03:49:36;;;;;;;0.70;0.60;;;;;;;10.39;100.00;-20126.72;4975912;28;20430;-74
2021/10/11 03:52:04;;;;;;;1.23;1.17;;;;;;;10.47;100.00;-20013.34;4974432;28;20852;-73
2021/10/11 03:54:33;;;;;;;0.70;0.57;;;;;;;10.46;100.00;-19940.59;4974501;28;20459;-72
2021/10/11 03:57:00;;;;;;;1.00;0.80;;;;;;;10.40;100.00;-19931.53;4973859;28;20464;-73
2021/10/11 03:59:27;;;;;;;1.90;1.43;;;;;;;10.44;100.00;-19824.84;4974156;28;20423;-74
2021/10/11 04:01:54;;;;;;;0.80;0.70;;;;;;;10.38;100.00;-19810.91;4975087;28;20470;-73
2021/10/11 04:04:22;;;;;;;0.70;0.60;;;;;;;10.40;100.00;-19731.28;4973270;28;20494;-73
2021/10/11 04:06:50;;;;;;;0.70;0.60;;;;;;;10.37;100.00;-19622.81;4990300;28;20935;-73
2021/10/11 04:09:17;;;;;;;0.70;0.60;;;;;;;10.42;100.00;-19586.41;4990038;28;20562;-74
2021/10/11 04:11:46;;;;;;;2.20;2.00;;;;;;;10.34;100.00;-19589.38;4974504;28;20475;-74
2021/10/11 04:14:13;;;;;;;0.70;0.60;;;;;;;10.38;100.00;-19470.16;4975466;28;20436;-73
2021/10/11 04:16:41;;;;;;;0.80;0.70;;;;;;;10.28;100.00;-19465.13;4974920;28;20837;-73
2021/10/11 04:19:09;;;;;;;0.70;0.60;;;;;;;10.29;100.00;-19405.28;4972768;28;20465;-73
2021/10/11 04:21:38;;;;;;;0.70;0.60;;;;;;;10.24;100.00;-19349.06;4974839;28;20431;-73
2021/10/11 04:24:06;;;;;;;0.70;0.60;;;;;;;10.20;100.00;-19335.41;4973717;28;20516;-73
2021/10/11 04:26:33;;;;;;;0.70;0.70;;;;;;;10.15;100.00;-19291.84;4989475;28;20489;-74
2021/10/11 04:29:01;;;;;;;0.70;0.60;;;;;;;9.92;100.00;-19353.81;4973579;28;20779;-73
2021/10/11 04:31:28;;;;;;;0.87;0.87;;;;;;;9.73;100.00;-19403.97;4989054;28;20491;-73
2021/10/11 04:33:55;;;;;;;0.70;0.60;;;;;;;9.54;100.00;-19471.97;4975117;28;20444;-73
2021/10/11 04:36:24;;;;;;;0.80;0.73;;;;;;;9.47;100.00;-19515.09;4973668;28;20459;-73
2021/10/11 04:38:52;;;;;;;0.70;0.60;;;;;;;9.42;100.00;-19516.56;4973076;28;20527;-72
2021/10/11 04:41:20;;;;;;;0.70;0.60;;;;;;;9.34;100.00;-19564.44;4974281;28;20415;-73
2021/10/11 04:43:46;;;;;;;0.70;0.60;;;;;;;9.25;100.00;-19674.63;4974374;28;20949;-73
2021/10/11 04:46:15;;;;;;;0.70;0.60;;;;;;;9.24;100.00;-19654.38;4973149;28;20483;-73
2021/10/11 04:48:42;;;;;;;0.70;0.70;;;;;;;9.19;100.00;-19730.84;4974893;28;20421;-72
2021/10/11 04:51:30;;;;;;;0.70;0.60;;;;;;;9.13;100.00;-19879.13;4973661;28;20562;-72
2021/10/11 04:53:58;;;;;;;0.70;0.53;;;;;;;9.17;100.00;-19915.19;4987081;28;20869;-72
2021/10/11 04:56:24;;;;;;;0.70;0.60;;;;;;;9.29;100.00;-19983.16;4988724;28;20447;-71
2021/10/11 04:58:51;;;;;;;0.70;0.60;;;;;;;9.38;100.00;-20153.16;4974328;28;20435;-72
2021/10/11 05:01:21;;;;;;;0.70;0.60;;;;;;;9.51;100.00;-20224.00;4956726;28;20449;-72
2021/10/11 05:03:48;;;;;;;0.70;0.60;;;;;;;9.61;100.00;-20301.69;4973803;28;20850;-72
2021/10/11 05:06:15;;;;;;;0.73;0.73;;;;;;;9.73;100.00;-20329.63;4977624;28;20546;-72
2021/10/11 05:08:42;;;;;;;0.70;0.60;;;;;;;9.74;100.00;-20409.94;4973291;28;20460;-73
2021/10/11 05:11:10;;;;;;;0.70;0.67;;;;;;;9.79;100.00;-20453.78;4972583;28;20999;-73
2021/10/11 05:13:38;;;;;;;0.70;0.60;;;;;;;9.84;100.00;-20420.13;4973234;28;20448;-73
2021/10/11 05:16:11;;;;;;;0.70;0.60;;;;;;;9.91;100.00;-20399.47;4974216;28;20961;-72
2021/10/11 05:18:44;;;;;;;0.70;0.60;;;;;;;9.93;100.00;-20440.03;4972461;28;20415;-72
2021/10/11 05:21:11;;;;;;;0.70;0.60;;;;;;;9.99;100.00;-20279.00;4977566;28;20450;-71
2021/10/11 05:23:38;;;;;;;0.70;0.60;;;;;;;10.03;100.00;-20287.56;4975137;28;20494;-72
2021/10/11 05:26:06;;;;;;;1.07;0.97;;;;;;;10.14;100.00;-20170.34;4973567;28;20440;-72
2021/10/11 05:28:33;;;;;;;1.00;0.90;;;;;;;10.00;100.00;-20329.31;4973319;28;20525;-72
2021/10/11 05:31:01;;;;;;;0.70;0.57;;;;;;;10.02;100.00;-20387.28;4974217;28;20460;-72
2021/10/11 05:33:28;;;;;;;1.00;0.90;;;;;;;10.08;100.00;-20404.03;4987594;28;20567;-71
2021/10/11 05:35:57;;;;;;;0.70;0.60;;;;;;;10.10;100.00;-20387.03;4988905;28;20870;-72
2021/10/11 05:38:26;;;;;;;1.37;1.27;;;;;;;10.13;100.00;-20385.34;4974283;28;20447;-72
2021/10/11 05:40:54;;;;;;;0.70;0.70;;;;;;;10.12;100.00;-20382.56;4989878;28;20434;-72
2021/10/11 05:43:22;;;;;;;0.70;0.50;;;;;;;10.14;100.00;-20393.13;4977837;28;20508;-72
2021/10/11 05:45:49;;;;;;;0.70;0.60;;;;;;;10.16;100.00;-20335.94;4978075;28;20513;-72
2021/10/11 05:48:16;;;;;;;0.70;0.60;;;;;;;10.16;100.00;-20351.09;4976950;28;20480;-72
2021/10/11 05:50:43;;;;;;;0.70;0.60;;;;;;;10.18;100.00;-20331.34;4976099;28;21054;-74
2021/10/11 05:53:12;;;;;;;1.03;1.03;;;;;;;10.19;100.00;-20366.66;4977167;28;20475;-72
2021/10/11 05:55:39;;;;;;;0.70;0.50;;;;;;;10.20;100.00;-20396.97;4975752;28;20981;-73
2021/10/11 05:58:06;;;;;;;0.70;0.70;;;;;;;10.21;100.00;-20429.78;4991581;28;20495;-74
2021/10/11 06:00:33;;;;;;;0.70;0.70;;;;;;;10.26;100.00;-20438.63;4976270;28;20428;-74
2021/10/11 06:03:01;;;;;;;0.70;0.60;;;;;;;10.27;100.00;-20506.50;4977010;28;20454;-72
2021/10/11 06:05:30;;;;;;;0.70;0.60;;;;;;;10.27;100.00;-20584.09;4992556;28;20443;-74
2021/10/11 06:07:58;;;;;;;0.70;0.60;;;;;;;10.30;100.00;-20594.91;4976933;28;20480;-72
2021/10/11 06:10:27;;;;;;;0.70;0.60;;;;;;;10.37;100.00;-20564.25;4972752;28;20423;-72
2021/10/11 06:12:55;;;;;;;1.73;1.63;;;;;;;10.40;100.00;-20525.00;4958519;28;20426;-72
2021/10/11 06:15:22;;;;;;;0.70;0.50;;;;;;;10.48;100.00;-20452.03;4975420;28;20504;-72
2021/10/11 06:17:49;;;;;;;1.07;0.97;;;;;;;10.50;100.00;-20382.31;4975934;28;20784;-73
2021/10/11 06:20:16;;;;;;;0.70;0.60;;;;;;;10.50;100.00;-20349.75;4975274;28;20956;-75
2021/10/11 06:22:43;;;;;;;0.80;0.80;;;;;;;10.55;100.00;-20326.03;4977828;28;20481;-72
2021/10/11 06:25:10;;;;;;;0.70;0.60;;;;;;;10.60;100.00;-20297.44;4978122;28;20496;-73
2021/10/11 06:27:39;;;;;;;0.70;0.70;;;;;;;10.68;100.00;-20239.19;4975113;28;20543;-74
2021/10/11 06:30:11;;;;;;;0.70;0.60;;;;;;;10.74;100.00;-20208.31;4957411;28;20805;-73
2021/10/11 06:32:38;;;;;;;0.90;0.90;;;;;;;10.77;100.00;-20188.94;4959379;28;20458;-75
2021/10/11 06:35:06;;;;;;;0.70;0.70;;;;;;;10.82;100.00;-20107.56;4992103;28;20892;-73
2021/10/11 06:37:33;;;;;;;0.80;0.80;;;;;;;10.84;100.00;-19995.31;4967376;28;20549;-74
2021/10/11 06:40:01;;;;;;;1.53;1.43;;;;;;;10.85;100.00;-19917.88;4969805;28;20449;-74
2021/10/11 06:42:31;;;;;;;0.70;0.60;;;;;;;10.89;100.00;-19903.88;4975309;28;20423;-73
2021/10/11 06:45:01;;;;;;;0.70;0.60;;;;;;;10.88;100.00;-19893.72;4976397;28;20485;-73
2021/10/11 06:47:30;;;;;;;0.70;0.60;;;;;;;10.94;100.00;-19772.31;4978538;28;20459;-74
2021/10/11 06:49:57;;;;;;;0.70;0.60;;;;;;;11.06;100.00;-19647.53;4977540;28;20491;-73
2021/10/11 06:52:24;;;;;;;0.70;0.60;;;;;;;11.11;100.00;-19573.56;4977304;28;20497;-74
2021/10/11 06:54:50;;;;;;;0.70;0.60;;;;;;;11.21;100.00;-19395.28;4977716;28;20423;-74
2021/10/11 06:57:17;;;;;;;0.90;0.90;;;;;;;11.20;100.00;-19282.16;4978299;28;20517;-74
2021/10/11 06:59:44;;;;;;;2.40;1.03;;;;;;;11.20;100.00;-19191.88;4972382;28;20467;-73
2021/10/11 07:02:14;;;;;;;0.70;0.70;;;;;;;11.25;100.00;-19017.50;4959023;28;20413;-73
2021/10/11 07:04:45;;;;;;;0.70;0.60;;;;;;;11.32;100.00;-18419.56;4973911;28;20474;-73
2021/10/11 07:07:13;;;;;;;1.27;1.17;;;;;;;11.39;100.00;-18170.22;4975319;28;20566;-73
2021/10/11 07:09:40;;;;;;;0.70;0.70;;;;;;;11.46;100.00;-18068.94;4976761;28;20459;-73
2021/10/11 07:12:07;;;;;;;0.70;0.70;;;;;;;11.57;100.00;-18076.34;4976438;28;20459;-73
2021/10/11 07:14:34;;;;;;;0.70;0.60;;;;;;;11.69;100.00;-17978.53;4976764;28;20448;-73
2021/10/11 07:17:01;;;;;;;0.80;0.80;;;;;;;11.78;100.00;-17942.91;4976180;28;20439;-73
2021/10/11 07:19:30;;;;;;;0.70;0.70;;;;;;;11.87;100.00;-17839.34;4975111;28;20527;-73
2021/10/11 07:22:00;;;;;;;0.70;0.60;;;;;;;12.01;100.00;-17633.94;4975033;28;20443;-72
2021/10/11 07:24:27;;;;;;;0.87;0.87;;;;;;;12.09;100.00;-17560.31;4974806;28;20471;-72
2021/10/11 07:26:54;;;;;;;0.70;0.60;;;;;;;12.23;100.00;-17239.00;4972855;28;20444;-73
2021/10/11 07:29:21;;;;;;;0.80;0.80;;;;;;;12.31;100.00;-16961.63;4979234;28;20456;-72
2021/10/11 07:31:48;;;;;;;0.70;0.60;;;;;;;12.41;100.00;-16644.31;4954911;28;20469;-73
2021/10/11 07:34:16;;;;;;;1.10;1.00;;;;;;;12.51;100.00;-16404.88;4970923;28;20456;-72
2021/10/11 07:36:44;;;;;;;1.33;1.23;;;;;;;12.58;100.00;-15998.66;4975714;28;20909;-72
2021/10/11 07:39:11;;;;;;;0.90;0.80;;;;;;;12.52;100.00;-15896.84;4976638;28;20477;-72
2021/10/11 07:41:39;;;;;;;0.70;0.60;;;;;;;12.65;100.00;-15541.78;4990207;28;20446;-72
2021/10/11 07:44:06;;;;;;;0.70;0.63;;;;;;;12.74;100.00;-15301.91;4975866;28;20451;-72
2021/10/11 07:46:33;;;;;;;0.90;0.90;;;;;;;12.86;100.00;-14938.78;4973275;28;20434;-72
2021/10/11 07:49:07;;;;;;;0.70;0.70;;;;;;;12.93;100.00;-14708.41;4975679;28;20900;-72
2021/10/11 07:51:34;;;;;;;1.83;1.73;;;;;;;13.12;100.00;-14280.66;4973583;28;20472;-74
2021/10/11 07:54:03;;;;;;;0.70;0.60;;;;;;;13.13;100.00;-14124.59;4970177;28;20478;-73
2021/10/11 07:56:30;;;;;;;0.70;0.70;;;;;;;13.49;100.00;-13434.41;4972908;28;20436;-73
2021/10/11 07:58:58;;;;;;;0.70;0.70;;;;;;;13.55;100.00;-13006.50;4973190;28;20448;-74
2021/10/11 08:01:25;;;;;;;0.70;0.70;;;;;;;13.69;100.00;-12448.28;4974303;28;20426;-75
2021/10/11 08:03:53;;;;;;;0.80;0.80;;;;;;;13.54;100.00;-12277.28;4974703;28;20458;-72
2021/10/11 08:06:20;;;;;;;0.70;0.60;;;;;;;13.86;100.00;-11551.84;4991715;28;20431;-73
2021/10/11 08:08:47;;;;;;;1.53;1.43;;;;;;;14.03;100.00;-10508.09;4974286;28;20476;-74
2021/10/11 08:11:20;;;;;;;0.70;0.70;;;;;;;14.33;100.00;-9368.47;4957191;28;20456;-74
2021/10/11 08:13:47;;;;;;;0.80;0.70;;;;;;;14.25;100.00;-8796.41;4989041;28;20438;-75
2021/10/11 08:16:14;;;;;;;0.70;0.60;;;;;;;14.49;100.00;-7763.41;4973969;28;20948;-74
2021/10/11 08:18:40;;;;;;;0.70;0.70;;;;;;;14.28;100.00;-7539.59;4974720;28;20415;-74
2021/10/11 08:21:08;;;;;;;0.70;0.70;;;;;;;14.33;100.00;-7092.03;4973077;28;20546;-74
2021/10/11 08:23:41;;;;;;;0.73;0.73;;;;;;;14.70;100.00;-5706.06;4974768;28;20509;-74
2021/10/11 08:26:09;;;;;;;0.70;0.60;;;;;;;14.66;100.00;-4900.47;4989512;28;20438;-73
2021/10/11 08:28:39;;;;;;;0.70;0.70;;;;;;;14.82;100.00;-3886.94;4973790;28;20787;-75
2021/10/11 08:31:06;;;;;;;0.70;0.60;;;;;;;14.92;100.00;-3004.53;4974199;28;20442;-75
2021/10/11 08:33:33;;;;;;;0.70;0.70;;;;;;;15.00;100.00;-2273.91;4974713;28;20450;-74
2021/10/11 08:36:01;;;;;;;0.70;0.60;;;;;;;14.93;100.00;-1599.34;4971820;28;20458;-74
2021/10/11 08:38:28;;;;;;;0.70;0.60;;;;;;;15.00;100.00;-939.34;4972202;28;20478;-75
2021/10/11 08:40:57;;;;;;;0.70;0.70;;;;;;;14.81;100.00;-1095.06;4964577;28;20463;-75
2021/10/11 08:43:24;;;;;;;0.70;0.60;;;;;;;14.81;100.00;-1559.25;4957069;28;20467;-75
2021/10/11 08:45:53;;;;;;;0.70;0.60;;;;;;;15.20;100.00;-1456.09;4975505;28;20489;-75
2021/10/11 08:48:20;;;;;;;0.70;0.60;;;;;;;15.20;100.00;-2798.50;4972971;28;20552;-74
2021/10/11 08:50:47;;;;;;;0.70;0.60;;;;;;;15.64;100.00;-4891.41;4973468;28;20543;-74
2021/10/11 08:53:17;;;;;;;1.07;0.83;;;;;;;15.85;100.00;-10463.16;4971832;28;20539;-74
2021/10/11 08:55:44;;;;;;;0.70;0.60;;;;;;;16.25;100.00;-18223.81;4988241;28;20822;-74
2021/10/11 08:58:14;;;;;;;0.70;0.70;;;;;;;16.11;100.00;-21119.34;4974689;28;20481;-72
2021/10/11 09:00:45;;;;;;;0.70;0.60;;;;;;;16.27;100.00;-21123.59;4972894;28;20453;-74
2021/10/11 09:03:17;;;;;;;0.70;0.60;;;;;;;16.42;100.00;-21127.72;4974258;28;20409;-74
2021/10/11 09:05:52;;;;;;;0.80;0.80;;;;;;;16.51;100.00;-21129.91;4972602;28;20445;-74
2021/10/11 09:08:19;;;;;;;0.80;0.70;;;;;;;16.91;100.00;-21140.78;4973644;28;20477;-74
2021/10/11 09:10:53;;;;;;;0.80;0.70;;;;;;;16.27;100.00;-21123.47;4974377;28;20534;-74
2021/10/11 09:13:25;;;;;;;0.80;0.73;;;;;;;16.42;100.00;-21127.72;4972781;28;20879;-74
2021/10/11 09:16:02;;;;;;;0.73;0.70;;;;;;;16.45;100.00;-21128.41;4973723;28;20412;-75
2021/10/11 09:18:31;;;;;;;0.80;0.70;;;;;;;16.89;100.00;-21140.34;4972700;28;20952;-74
2021/10/11 09:21:00;;;;;;;0.80;0.70;;;;;;;16.98;100.00;-21142.56;4974511;28;20568;-74
2021/10/11 09:23:30;;;;;;;0.70;0.60;;;;;;;17.08;100.00;-21145.28;4972896;28;20492;-74
2021/10/11 09:25:58;;;;;;;0.80;0.70;;;;;;;16.58;100.00;-21131.84;4974467;28;20450;-74
2021/10/11 09:28:27;;;;;;;0.70;0.70;;;;;;;16.36;100.00;-21126.06;4974987;28;20915;-73
2021/10/11 09:31:09;;;;;;;0.70;0.60;;;;;;;16.50;100.00;-21129.78;4973651;28;20512;-73
2021/10/11 09:33:37;;;;;;;0.70;0.60;;;;;;;16.40;100.00;-21127.16;4972569;28;20474;-74
2021/10/11 09:36:04;;;;;;;0.77;0.70;;;;;;;16.48;100.00;-21129.09;4989037;28;20982;-72
2021/10/11 09:38:31;;;;;;;0.80;0.70;;;;;;;16.68;100.00;-21134.59;4988968;28;20489;-73
2021/10/11 09:40:59;;;;;;;0.70;0.70;;;;;;;16.61;100.00;-21132.66;4973807;28;20470;-72
2021/10/11 09:43:28;;;;;;;0.70;0.60;;;;;;;16.96;100.00;-21142.13;4989313;28;20457;-74
2021/10/11 09:45:57;;;;;;;0.70;0.67;;;;;;;16.64;100.00;-21133.63;4961208;28;20537;-73
2021/10/11 09:48:24;;;;;;;0.70;0.60;;;;;;;16.79;100.00;-21137.47;4973248;28;20542;-73
2021/10/11 09:50:53;;;;;;;0.70;0.70;;;;;;;16.92;100.00;-21140.91;4972857;28;20451;-72
2021/10/11 09:53:20;;;;;;;0.70;0.60;;;;;;;16.99;100.00;-21142.97;4988676;28;20481;-73
2021/10/11 09:55:47;;;;;;;0.70;0.60;;;;;;;17.13;100.00;-21146.66;4989076;28;20445;-72
2021/10/11 09:58:14;;;;;;;0.80;0.80;;;;;;;17.25;100.00;-21149.97;4973883;28;20832;-73
2021/10/11 10:00:42;;;;;;;0.70;0.70;;;;;;;17.22;100.00;-21149.13;4974001;28;20843;-73
2021/10/11 10:03:12;;;;;;;0.70;0.70;;;;;;;17.46;100.00;-21155.44;4972318;28;21042;-73
2021/10/11 10:05:45;;;;;;;0.80;0.70;;;;;;;17.26;100.00;-21150.22;4974769;28;21011;-73
2021/10/11 10:08:20;;;;;;;0.70;0.60;;;;;;;17.35;100.00;-21152.56;4987884;28;20466;-73
2021/10/11 10:10:52;;;;;;;0.70;0.70;;;;;;;17.57;100.00;-21158.59;4968549;28;20975;-73
2021/10/11 10:13:21;;;;;;;0.70;0.70;;;;;;;17.82;100.00;-21165.19;4972085;28;20478;-73
2021/10/11 10:15:48;;;;;;;0.70;0.60;;;;;;;17.72;100.00;-21162.56;4973362;28;20432;-74
2021/10/11 10:18:18;;;;;;;0.70;0.70;;;;;;;17.66;100.00;-21160.94;4989289;28;20462;-72
2021/10/11 10:20:54;;;;;;;0.80;0.70;;;;;;;17.82;100.00;-21165.31;4972213;28;20470;-72
2021/10/11 10:23:25;;;;;;;0.97;0.97;;;;;;;17.67;100.00;-21161.19;4973941;28;20518;-72
2021/10/11 10:25:52;;;;;;;0.80;0.70;;;;;;;17.31;100.00;-21151.59;4973942;28;20917;-73
2021/10/11 10:28:19;;;;;;;0.80;0.70;;;;;;;17.04;100.00;-21144.34;4975268;28;20519;-73
2021/10/11 10:30:57;;;;;;;0.70;0.60;;;;;;;17.41;100.00;-21154.06;4961617;28;20440;-72
2021/10/11 10:33:33;;;;;;;0.80;0.73;;;;;;;17.18;100.00;-21148.03;4956392;29;20468;-72
2021/10/11 10:36:01;;;;;;;0.70;0.60;;;;;;;17.48;100.00;-21156.13;4963153;28;20533;-73
2021/10/11 10:38:31;;;;;;;0.70;0.60;;;;;;;17.54;100.00;-21157.63;4975988;28;20514;-73
2021/10/11 10:40:58;;;;;;;0.80;0.70;;;;;;;17.95;100.00;-21168.59;4977357;28;20527;-72
2021/10/11 10:43:25;;;;;;;0.70;0.60;;;;;;;17.82;100.00;-21165.31;4991948;28;20999;-72
2021/10/11 10:45:53;;;;;;;0.70;0.70;;;;;;;17.49;100.00;-21156.25;4975551;28;20442;-72
2021/10/11 10:48:22;;;;;;;0.70;0.70;;;;;;;17.73;100.00;-21162.84;4991828;28;20782;-73
2021/10/11 10:50:51;;;;;;;0.70;0.70;;;;;;;17.72;100.00;-21162.56;4975730;28;20432;-73
2021/10/11 10:53:19;;;;;;;0.70;0.70;;;;;;;17.42;100.00;-21154.34;4975932;28;20574;-73
2021/10/11 10:55:47;;;;;;;1.53;1.43;;;;;;;17.24;100.00;-21149.69;4974587;28;20443;-72
2021/10/11 10:58:16;;;;;;;0.70;0.70;;;;;;;17.08;100.00;-21145.28;4957575;28;20493;-73
2021/10/11 11:00:44;;;;;;;0.70;0.70;;;;;;;17.18;100.00;-21148.03;4975342;28;20502;-72
2021/10/11 11:03:17;;;;;;;0.70;0.70;;;;;;;16.99;100.00;-21142.81;4977279;28;20520;-73
2021/10/11 11:05:48;;;;;;;0.70;0.60;;;;;;;16.96;100.00;-21142.00;4977135;28;20447;-73
2021/10/11 11:08:35;;;;;;;0.70;0.70;;;;;;;16.85;100.00;-21139.13;4973832;28;20809;-73
2021/10/11 11:11:03;;;;;;;0.80;0.70;;;;;;;17.11;100.00;-21146.13;4975070;28;20522;-73
2021/10/11 11:13:30;;;;;;;0.70;0.67;;;;;;;16.82;100.00;-21138.44;4972052;28;20879;-72
2021/10/11 11:15:57;;;;;;;0.70;0.60;;;;;;;16.89;100.00;-21140.34;4957194;28;20460;-73
2021/10/11 11:18:27;;;;;;;0.70;0.70;;;;;;;16.83;100.00;-21138.72;4955372;28;20542;-73
2021/10/11 11:20:56;;;;;;;0.80;0.80;;;;;;;16.78;100.00;-21137.34;4959768;28;20475;-72
2021/10/11 11:23:34;;;;;;;0.70;0.60;;;;;;;16.79;100.00;-21137.63;4972330;28;20464;-72
2021/10/11 11:26:04;;;;;;;0.70;0.70;;;;;;;16.88;100.00;-21139.94;4972135;28;20455;-72